Aviation Digital Data Service (ADDS)

Output produced by METARs form (1912 UTC 25 June 2017)
found at http://www.aviationweather.gov/adds/metars/
 
KLGA 251841Z 2519/2618 18014KT P6SM VCSH BKN070 
     TEMPO 2519/2520 30010G20KT 
     FM252100 18011KT P6SM VCSH BKN070 
     FM252300 26011KT P6SM BKN070 
     FM260100 27008KT P6SM SCT070 
     FM260400 28006KT P6SM SCT120 
     FM261600 24009KT P6SM SCT050